sensor_id;sensor_type;location;lat;lon;timestamp;P1;durP1;ratioP1;P2;durP2;ratioP2
26582;SDS011;14230;45.382;10.998;2022-09-09T00:01:37;15.18;;;5.80;;
26582;SDS011;14230;45.382;10.998;2022-09-09T00:12:48;7.68;;;3.78;;
26582;SDS011;14230;45.382;10.998;2022-09-09T00:15:23;8.02;;;3.15;;
26582;SDS011;14230;45.382;10.998;2022-09-09T00:18:05;8.93;;;3.00;;
26582;SDS011;14230;45.382;10.998;2022-09-09T00:23:23;8.35;;;2.80;;
26582;SDS011;14230;45.382;10.998;2022-09-09T00:28:52;10.45;;;3.67;;
26582;SDS011;14230;45.382;10.998;2022-09-09T00:31:34;10.15;;;3.83;;
26582;SDS011;14230;45.382;10.998;2022-09-09T00:36:50;9.93;;;4.00;;
26582;SDS011;14230;45.382;10.998;2022-09-09T00:39:32;9.77;;;4.57;;
26582;SDS011;14230;45.382;10.998;2022-09-09T00:42:18;14.15;;;3.88;;
26582;SDS011;14230;45.382;10.998;2022-09-09T00:44:52;15.02;;;5.07;;
26582;SDS011;14230;45.382;10.998;2022-09-09T00:55:44;10.93;;;6.88;;
26582;SDS011;14230;45.382;10.998;2022-09-09T00:58:18;9.40;;;6.15;;
26582;SDS011;14230;45.382;10.998;2022-09-09T01:00:46;11.60;;;5.90;;
26582;SDS011;14230;45.382;10.998;2022-09-09T01:11:51;14.20;;;8.13;;
26582;SDS011;14230;45.382;10.998;2022-09-09T01:28:45;22.33;;;7.20;;
26582;SDS011;14230;45.382;10.998;2022-09-09T01:31:17;18.50;;;7.05;;
26582;SDS011;14230;45.382;10.998;2022-09-09T01:33:50;9.48;;;6.20;;
26582;SDS011;14230;45.382;10.998;2022-09-09T01:36:31;9.90;;;6.65;;
26582;SDS011;14230;45.382;10.998;2022-09-09T01:39:06;12.63;;;7.13;;
26582;SDS011;14230;45.382;10.998;2022-09-09T01:41:34;15.82;;;8.48;;
26582;SDS011;14230;45.382;10.998;2022-09-09T01:44:07;12.15;;;7.03;;
26582;SDS011;14230;45.382;10.998;2022-09-09T01:46:37;10.35;;;6.80;;
26582;SDS011;14230;45.382;10.998;2022-09-09T01:49:10;9.30;;;6.03;;
26582;SDS011;14230;45.382;10.998;2022-09-09T01:51:38;9.85;;;6.80;;
26582;SDS011;14230;45.382;10.998;2022-09-09T01:54:11;11.07;;;5.95;;
26582;SDS011;14230;45.382;10.998;2022-09-09T02:04:42;8.30;;;5.72;;
26582;SDS011;14230;45.382;10.998;2022-09-09T02:07:28;7.88;;;4.68;;
26582;SDS011;14230;45.382;10.998;2022-09-09T02:13:14;6.82;;;4.53;;
26582;SDS011;14230;45.382;10.998;2022-09-09T02:18:44;5.55;;;4.28;;
26582;SDS011;14230;45.382;10.998;2022-09-09T02:21:24;8.77;;;4.88;;
26582;SDS011;14230;45.382;10.998;2022-09-09T02:23:55;9.13;;;4.22;;
26582;SDS011;14230;45.382;10.998;2022-09-09T02:26:27;8.60;;;4.30;;
26582;SDS011;14230;45.382;10.998;2022-09-09T02:29:01;12.30;;;3.67;;
26582;SDS011;14230;45.382;10.998;2022-09-09T02:34:06;7.63;;;3.90;;
26582;SDS011;14230;45.382;10.998;2022-09-09T02:36:38;9.27;;;3.90;;
26582;SDS011;14230;45.382;10.998;2022-09-09T02:41:38;10.85;;;4.13;;
26582;SDS011;14230;45.382;10.998;2022-09-09T02:44:14;12.00;;;4.38;;
26582;SDS011;14230;45.382;10.998;2022-09-09T02:50:15;6.05;;;4.28;;
26582;SDS011;14230;45.382;10.998;2022-09-09T02:55:43;12.73;;;4.65;;
26582;SDS011;14230;45.382;10.998;2022-09-09T02:58:25;6.40;;;4.68;;
26582;SDS011;14230;45.382;10.998;2022-09-09T03:00:58;8.23;;;4.82;;
26582;SDS011;14230;45.382;10.998;2022-09-09T03:03:28;8.25;;;4.70;;
26582;SDS011;14230;45.382;10.998;2022-09-09T03:05:59;10.50;;;4.93;;
26582;SDS011;14230;45.382;10.998;2022-09-09T03:08:27;10.20;;;4.90;;
26582;SDS011;14230;45.382;10.998;2022-09-09T03:10:58;14.63;;;5.75;;
26582;SDS011;14230;45.382;10.998;2022-09-09T03:13:30;8.73;;;4.70;;
26582;SDS011;14230;45.382;10.998;2022-09-09T03:15:58;11.70;;;5.57;;
26582;SDS011;14230;45.382;10.998;2022-09-09T03:18:28;9.93;;;5.47;;
26582;SDS011;14230;45.382;10.998;2022-09-09T03:20:56;10.57;;;5.50;;
26582;SDS011;14230;45.382;10.998;2022-09-09T03:23:24;9.23;;;4.75;;
26582;SDS011;14230;45.382;10.998;2022-09-09T03:25:52;14.25;;;5.72;;
26582;SDS011;14230;45.382;10.998;2022-09-09T03:28:30;5.97;;;5.30;;
26582;SDS011;14230;45.382;10.998;2022-09-09T03:31:00;9.75;;;5.00;;
26582;SDS011;14230;45.382;10.998;2022-09-09T03:33:37;7.53;;;4.68;;
26582;SDS011;14230;45.382;10.998;2022-09-09T03:36:06;11.75;;;5.60;;
26582;SDS011;14230;45.382;10.998;2022-09-09T03:38:35;7.85;;;5.63;;
26582;SDS011;14230;45.382;10.998;2022-09-09T03:41:03;7.85;;;5.40;;
26582;SDS011;14230;45.382;10.998;2022-09-09T03:43:34;5.70;;;4.65;;
26582;SDS011;14230;45.382;10.998;2022-09-09T03:46:03;12.15;;;5.85;;
26582;SDS011;14230;45.382;10.998;2022-09-09T03:48:31;12.63;;;5.57;;
26582;SDS011;14230;45.382;10.998;2022-09-09T03:50:59;12.98;;;6.38;;
26582;SDS011;14230;45.382;10.998;2022-09-09T03:53:29;11.38;;;7.07;;
26582;SDS011;14230;45.382;10.998;2022-09-09T03:55:57;10.15;;;5.18;;
26582;SDS011;14230;45.382;10.998;2022-09-09T03:58:27;9.40;;;5.75;;
26582;SDS011;14230;45.382;10.998;2022-09-09T04:01:06;14.18;;;6.07;;
26582;SDS011;14230;45.382;10.998;2022-09-09T04:03:37;8.85;;;5.90;;
26582;SDS011;14230;45.382;10.998;2022-09-09T04:06:05;8.77;;;5.80;;
26582;SDS011;14230;45.382;10.998;2022-09-09T04:08:34;9.80;;;5.25;;
26582;SDS011;14230;45.382;10.998;2022-09-09T04:11:03;14.38;;;5.05;;
26582;SDS011;14230;45.382;10.998;2022-09-09T04:13:34;11.55;;;5.53;;
26582;SDS011;14230;45.382;10.998;2022-09-09T04:16:04;9.75;;;5.78;;
26582;SDS011;14230;45.382;10.998;2022-09-09T04:18:34;7.78;;;4.90;;
26582;SDS011;14230;45.382;10.998;2022-09-09T04:21:02;10.43;;;5.15;;
26582;SDS011;14230;45.382;10.998;2022-09-09T04:23:32;10.13;;;4.88;;
26582;SDS011;14230;45.382;10.998;2022-09-09T04:26:01;8.30;;;4.80;;
26582;SDS011;14230;45.382;10.998;2022-09-09T04:28:32;10.43;;;5.57;;
26582;SDS011;14230;45.382;10.998;2022-09-09T04:31:08;8.57;;;5.20;;
26582;SDS011;14230;45.382;10.998;2022-09-09T04:33:40;15.27;;;5.63;;
26582;SDS011;14230;45.382;10.998;2022-09-09T04:36:09;15.57;;;5.90;;
26582;SDS011;14230;45.382;10.998;2022-09-09T04:38:37;20.42;;;12.00;;
26582;SDS011;14230;45.382;10.998;2022-09-09T04:41:05;11.55;;;6.93;;
26582;SDS011;14230;45.382;10.998;2022-09-09T04:43:34;17.35;;;11.82;;
26582;SDS011;14230;45.382;10.998;2022-09-09T04:46:04;13.40;;;7.22;;
26582;SDS011;14230;45.382;10.998;2022-09-09T04:48:32;16.00;;;6.20;;
26582;SDS011;14230;45.382;10.998;2022-09-09T04:51:03;10.15;;;4.75;;
26582;SDS011;14230;45.382;10.998;2022-09-09T04:53:33;10.60;;;5.47;;
26582;SDS011;14230;45.382;10.998;2022-09-09T04:56:05;10.20;;;5.28;;
26582;SDS011;14230;45.382;10.998;2022-09-09T04:58:38;10.30;;;5.10;;
26582;SDS011;14230;45.382;10.998;2022-09-09T05:01:11;7.18;;;4.95;;
26582;SDS011;14230;45.382;10.998;2022-09-09T05:03:45;6.25;;;4.65;;
26582;SDS011;14230;45.382;10.998;2022-09-09T05:06:18;11.98;;;5.20;;
26582;SDS011;14230;45.382;10.998;2022-09-09T05:08:49;9.30;;;4.38;;
26582;SDS011;14230;45.382;10.998;2022-09-09T05:11:23;14.38;;;5.13;;
26582;SDS011;14230;45.382;10.998;2022-09-09T05:13:58;11.93;;;4.40;;
26582;SDS011;14230;45.382;10.998;2022-09-09T05:16:28;10.20;;;4.57;;
26582;SDS011;14230;45.382;10.998;2022-09-09T05:18:59;14.55;;;4.80;;
26582;SDS011;14230;45.382;10.998;2022-09-09T05:21:35;8.68;;;4.25;;
26582;SDS011;14230;45.382;10.998;2022-09-09T05:24:02;9.70;;;4.68;;
26582;SDS011;14230;45.382;10.998;2022-09-09T05:26:30;10.93;;;5.13;;
26582;SDS011;14230;45.382;10.998;2022-09-09T05:28:58;7.95;;;4.50;;
26582;SDS011;14230;45.382;10.998;2022-09-09T05:31:28;14.45;;;5.47;;
26582;SDS011;14230;45.382;10.998;2022-09-09T05:34:00;31.20;;;23.08;;
26582;SDS011;14230;45.382;10.998;2022-09-09T05:36:28;10.73;;;5.55;;
26582;SDS011;14230;45.382;10.998;2022-09-09T05:38:56;21.17;;;13.88;;
26582;SDS011;14230;45.382;10.998;2022-09-09T05:41:26;14.68;;;4.72;;
26582;SDS011;14230;45.382;10.998;2022-09-09T05:43:57;8.27;;;4.30;;
26582;SDS011;14230;45.382;10.998;2022-09-09T05:46:27;16.38;;;4.70;;
26582;SDS011;14230;45.382;10.998;2022-09-09T05:48:55;8.20;;;4.60;;
26582;SDS011;14230;45.382;10.998;2022-09-09T05:51:27;8.88;;;4.68;;
26582;SDS011;14230;45.382;10.998;2022-09-09T05:53:59;15.20;;;5.50;;
26582;SDS011;14230;45.382;10.998;2022-09-09T05:56:30;5.63;;;3.97;;
26582;SDS011;14230;45.382;10.998;2022-09-09T05:58:59;9.57;;;4.53;;
26582;SDS011;14230;45.382;10.998;2022-09-09T06:01:29;10.02;;;4.30;;
26582;SDS011;14230;45.382;10.998;2022-09-09T06:04:00;10.68;;;4.13;;
26582;SDS011;14230;45.382;10.998;2022-09-09T06:06:30;17.30;;;8.25;;
26582;SDS011;14230;45.382;10.998;2022-09-09T06:09:09;12.30;;;5.60;;
26582;SDS011;14230;45.382;10.998;2022-09-09T06:11:40;10.57;;;3.30;;
26582;SDS011;14230;45.382;10.998;2022-09-09T06:14:08;7.35;;;2.90;;
26582;SDS011;14230;45.382;10.998;2022-09-09T06:16:37;6.32;;;2.45;;
26582;SDS011;14230;45.382;10.998;2022-09-09T06:19:11;8.98;;;2.47;;
26582;SDS011;14230;45.382;10.998;2022-09-09T06:21:40;6.22;;;3.17;;
26582;SDS011;14230;45.382;10.998;2022-09-09T06:24:08;7.78;;;2.50;;
26582;SDS011;14230;45.382;10.998;2022-09-09T06:26:38;9.77;;;2.30;;
26582;SDS011;14230;45.382;10.998;2022-09-09T06:29:10;6.78;;;2.40;;
26582;SDS011;14230;45.382;10.998;2022-09-09T06:31:39;5.53;;;2.67;;
26582;SDS011;14230;45.382;10.998;2022-09-09T06:34:19;8.40;;;2.38;;
26582;SDS011;14230;45.382;10.998;2022-09-09T06:36:50;8.23;;;2.80;;
26582;SDS011;14230;45.382;10.998;2022-09-09T06:39:23;9.52;;;3.03;;
26582;SDS011;14230;45.382;10.998;2022-09-09T06:41:51;9.90;;;1.92;;
26582;SDS011;14230;45.382;10.998;2022-09-09T06:44:38;3.83;;;1.77;;
26582;SDS011;14230;45.382;10.998;2022-09-09T06:47:11;10.60;;;2.42;;
26582;SDS011;14230;45.382;10.998;2022-09-09T06:49:40;4.78;;;2.40;;
26582;SDS011;14230;45.382;10.998;2022-09-09T06:52:14;10.90;;;2.53;;
26582;SDS011;14230;45.382;10.998;2022-09-09T06:54:41;8.55;;;2.10;;
26582;SDS011;14230;45.382;10.998;2022-09-09T06:57:09;4.68;;;1.83;;
26582;SDS011;14230;45.382;10.998;2022-09-09T06:59:57;9.20;;;2.03;;
26582;SDS011;14230;45.382;10.998;2022-09-09T07:02:24;7.20;;;1.90;;
26582;SDS011;14230;45.382;10.998;2022-09-09T07:04:52;7.78;;;4.43;;
26582;SDS011;14230;45.382;10.998;2022-09-09T07:07:20;3.65;;;2.22;;
26582;SDS011;14230;45.382;10.998;2022-09-09T07:09:48;4.68;;;1.90;;
26582;SDS011;14230;45.382;10.998;2022-09-09T07:12:15;5.40;;;2.40;;
26582;SDS011;14230;45.382;10.998;2022-09-09T07:14:51;6.93;;;3.15;;
26582;SDS011;14230;45.382;10.998;2022-09-09T07:17:18;7.72;;;2.78;;
26582;SDS011;14230;45.382;10.998;2022-09-09T07:19:45;5.75;;;2.53;;
26582;SDS011;14230;45.382;10.998;2022-09-09T07:22:15;6.22;;;3.13;;
26582;SDS011;14230;45.382;10.998;2022-09-09T07:24:43;5.82;;;2.15;;
26582;SDS011;14230;45.382;10.998;2022-09-09T07:27:12;6.65;;;2.60;;
26582;SDS011;14230;45.382;10.998;2022-09-09T07:29:40;7.30;;;2.58;;
26582;SDS011;14230;45.382;10.998;2022-09-09T07:32:08;5.47;;;2.40;;
26582;SDS011;14230;45.382;10.998;2022-09-09T07:34:37;7.97;;;2.95;;
26582;SDS011;14230;45.382;10.998;2022-09-09T07:37:05;5.25;;;2.45;;
26582;SDS011;14230;45.382;10.998;2022-09-09T07:39:34;10.52;;;2.75;;
26582;SDS011;14230;45.382;10.998;2022-09-09T07:42:01;5.30;;;2.40;;
26582;SDS011;14230;45.382;10.998;2022-09-09T07:44:30;5.60;;;2.13;;
26582;SDS011;14230;45.382;10.998;2022-09-09T07:47:05;8.57;;;2.58;;
26582;SDS011;14230;45.382;10.998;2022-09-09T07:49:41;7.50;;;2.55;;
26582;SDS011;14230;45.382;10.998;2022-09-09T07:52:09;4.75;;;2.58;;
26582;SDS011;14230;45.382;10.998;2022-09-09T07:54:42;6.28;;;2.55;;
26582;SDS011;14230;45.382;10.998;2022-09-09T07:57:10;8.73;;;3.22;;
26582;SDS011;14230;45.382;10.998;2022-09-09T07:59:39;6.55;;;2.70;;
26582;SDS011;14230;45.382;10.998;2022-09-09T08:02:08;6.22;;;2.58;;
26582;SDS011;14230;45.382;10.998;2022-09-09T08:04:36;8.20;;;2.60;;
26582;SDS011;14230;45.382;10.998;2022-09-09T08:07:04;6.65;;;3.00;;
26582;SDS011;14230;45.382;10.998;2022-09-09T08:09:39;9.63;;;2.60;;
26582;SDS011;14230;45.382;10.998;2022-09-09T08:12:15;11.27;;;2.53;;
26582;SDS011;14230;45.382;10.998;2022-09-09T08:14:43;9.70;;;2.58;;
26582;SDS011;14230;45.382;10.998;2022-09-09T08:17:11;5.07;;;2.33;;
26582;SDS011;14230;45.382;10.998;2022-09-09T08:19:38;6.82;;;2.20;;
26582;SDS011;14230;45.382;10.998;2022-09-09T08:22:13;4.80;;;2.25;;
26582;SDS011;14230;45.382;10.998;2022-09-09T08:24:41;7.38;;;2.85;;
26582;SDS011;14230;45.382;10.998;2022-09-09T08:27:09;4.20;;;2.25;;
26582;SDS011;14230;45.382;10.998;2022-09-09T08:29:37;4.95;;;2.00;;
26582;SDS011;14230;45.382;10.998;2022-09-09T08:32:05;10.70;;;2.55;;
26582;SDS011;14230;45.382;10.998;2022-09-09T08:34:34;9.50;;;2.42;;
26582;SDS011;14230;45.382;10.998;2022-09-09T08:37:10;6.18;;;2.35;;
26582;SDS011;14230;45.382;10.998;2022-09-09T08:39:40;6.72;;;2.63;;
26582;SDS011;14230;45.382;10.998;2022-09-09T08:45:22;7.05;;;2.40;;
26582;SDS011;14230;45.382;10.998;2022-09-09T08:50:58;7.57;;;2.35;;
26582;SDS011;14230;45.382;10.998;2022-09-09T08:53:36;4.80;;;2.05;;
26582;SDS011;14230;45.382;10.998;2022-09-09T08:56:11;7.82;;;2.45;;
26582;SDS011;14230;45.382;10.998;2022-09-09T08:58:49;10.45;;;6.78;;
26582;SDS011;14230;45.382;10.998;2022-09-09T09:07:30;7.20;;;2.35;;
26582;SDS011;14230;45.382;10.998;2022-09-09T09:19:00;7.40;;;2.60;;
26582;SDS011;14230;45.382;10.998;2022-09-09T09:21:39;8.02;;;2.78;;
26582;SDS011;14230;45.382;10.998;2022-09-09T09:24:29;7.22;;;2.65;;
26582;SDS011;14230;45.382;10.998;2022-09-09T09:27:15;5.55;;;2.60;;
26582;SDS011;14230;45.382;10.998;2022-09-09T09:29:50;7.32;;;2.67;;
26582;SDS011;14230;45.382;10.998;2022-09-09T09:32:47;8.23;;;2.38;;
26582;SDS011;14230;45.382;10.998;2022-09-09T09:35:16;9.38;;;2.70;;
26582;SDS011;14230;45.382;10.998;2022-09-09T09:37:44;6.65;;;2.17;;
26582;SDS011;14230;45.382;10.998;2022-09-09T09:40:34;6.88;;;2.75;;
26582;SDS011;14230;45.382;10.998;2022-09-09T09:43:02;5.90;;;2.30;;
26582;SDS011;14230;45.382;10.998;2022-09-09T09:45:42;4.93;;;2.20;;
26582;SDS011;14230;45.382;10.998;2022-09-09T09:48:34;7.40;;;2.58;;
26582;SDS011;14230;45.382;10.998;2022-09-09T09:51:11;6.55;;;2.50;;
26582;SDS011;14230;45.382;10.998;2022-09-09T09:53:43;8.52;;;2.63;;
26582;SDS011;14230;45.382;10.998;2022-09-09T09:56:13;10.30;;;2.58;;
26582;SDS011;14230;45.382;10.998;2022-09-09T10:01:25;6.78;;;2.47;;
26582;SDS011;14230;45.382;10.998;2022-09-09T10:03:57;33.88;;;3.38;;
26582;SDS011;14230;45.382;10.998;2022-09-09T10:06:30;38.40;;;5.85;;
26582;SDS011;14230;45.382;10.998;2022-09-09T10:08:57;41.22;;;4.15;;
26582;SDS011;14230;45.382;10.998;2022-09-09T10:11:35;26.48;;;3.85;;
26582;SDS011;14230;45.382;10.998;2022-09-09T10:14:20;20.38;;;4.50;;
26582;SDS011;14230;45.382;10.998;2022-09-09T10:32:05;6.43;;;3.22;;
26582;SDS011;14230;45.382;10.998;2022-09-09T10:40:46;7.15;;;3.13;;
26582;SDS011;14230;45.382;10.998;2022-09-09T10:43:34;7.28;;;3.08;;
26582;SDS011;14230;45.382;10.998;2022-09-09T10:49:01;5.28;;;2.33;;
26582;SDS011;14230;45.382;10.998;2022-09-09T10:56:58;12.27;;;2.80;;
26582;SDS011;14230;45.382;10.998;2022-09-09T10:59:38;7.45;;;2.08;;
26582;SDS011;14230;45.382;10.998;2022-09-09T11:05:03;4.53;;;2.20;;
26582;SDS011;14230;45.382;10.998;2022-09-09T11:08:20;4.10;;;2.20;;
26582;SDS011;14230;45.382;10.998;2022-09-09T11:10:42;6.78;;;1.90;;
26582;SDS011;14230;45.382;10.998;2022-09-09T11:16:40;1.83;;;1.55;;
26582;SDS011;14230;45.382;10.998;2022-09-09T11:19:25;4.15;;;1.83;;
26582;SDS011;14230;45.382;10.998;2022-09-09T11:21:55;3.33;;;1.80;;
26582;SDS011;14230;45.382;10.998;2022-09-09T11:24:32;4.60;;;1.42;;
26582;SDS011;14230;45.382;10.998;2022-09-09T11:27:08;2.47;;;1.20;;
26582;SDS011;14230;45.382;10.998;2022-09-09T11:29:58;2.95;;;1.10;;
26582;SDS011;14230;45.382;10.998;2022-09-09T11:40:44;4.90;;;1.45;;
26582;SDS011;14230;45.382;10.998;2022-09-09T11:45:42;4.88;;;1.27;;
26582;SDS011;14230;45.382;10.998;2022-09-09T11:50:57;5.40;;;1.45;;
26582;SDS011;14230;45.382;10.998;2022-09-09T11:53:27;3.53;;;1.42;;
26582;SDS011;14230;45.382;10.998;2022-09-09T11:58:37;3.78;;;1.23;;
26582;SDS011;14230;45.382;10.998;2022-09-09T12:01:37;5.53;;;1.42;;
26582;SDS011;14230;45.382;10.998;2022-09-09T12:04:26;2.50;;;1.00;;
26582;SDS011;14230;45.382;10.998;2022-09-09T12:07:04;2.42;;;1.33;;
26582;SDS011;14230;45.382;10.998;2022-09-09T12:09:54;7.35;;;2.35;;
26582;SDS011;14230;45.382;10.998;2022-09-09T12:12:34;2.72;;;1.40;;
26582;SDS011;14230;45.382;10.998;2022-09-09T12:17:47;3.45;;;1.45;;
26582;SDS011;14230;45.382;10.998;2022-09-09T12:20:23;2.47;;;1.52;;
26582;SDS011;14230;45.382;10.998;2022-09-09T12:30:49;3.08;;;1.25;;
26582;SDS011;14230;45.382;10.998;2022-09-09T12:33:40;3.10;;;1.38;;
26582;SDS011;14230;45.382;10.998;2022-09-09T12:36:13;2.83;;;1.30;;
26582;SDS011;14230;45.382;10.998;2022-09-09T12:38:46;2.45;;;1.38;;
26582;SDS011;14230;45.382;10.998;2022-09-09T12:41:25;1.67;;;1.20;;
26582;SDS011;14230;45.382;10.998;2022-09-09T12:44:06;2.10;;;1.20;;
26582;SDS011;14230;45.382;10.998;2022-09-09T12:46:38;1.30;;;1.17;;
26582;SDS011;14230;45.382;10.998;2022-09-09T12:52:06;3.92;;;1.50;;
26582;SDS011;14230;45.382;10.998;2022-09-09T12:54:57;4.25;;;1.40;;
26582;SDS011;14230;45.382;10.998;2022-09-09T12:57:30;2.55;;;1.30;;
26582;SDS011;14230;45.382;10.998;2022-09-09T13:00:15;2.55;;;1.33;;
26582;SDS011;14230;45.382;10.998;2022-09-09T13:02:46;1.42;;;1.15;;
26582;SDS011;14230;45.382;10.998;2022-09-09T13:05:21;1.83;;;1.33;;
26582;SDS011;14230;45.382;10.998;2022-09-09T13:08:02;3.95;;;1.20;;
26582;SDS011;14230;45.382;10.998;2022-09-09T13:10:33;1.77;;;1.27;;
26582;SDS011;14230;45.382;10.998;2022-09-09T13:13:20;3.70;;;1.42;;
26582;SDS011;14230;45.382;10.998;2022-09-09T13:15:57;3.13;;;1.20;;
26582;SDS011;14230;45.382;10.998;2022-09-09T13:18:34;2.10;;;0.90;;
26582;SDS011;14230;45.382;10.998;2022-09-09T13:21:04;3.55;;;1.30;;
26582;SDS011;14230;45.382;10.998;2022-09-09T13:23:33;5.22;;;1.67;;
26582;SDS011;14230;45.382;10.998;2022-09-09T13:26:06;3.97;;;1.30;;
26582;SDS011;14230;45.382;10.998;2022-09-09T13:28:49;4.22;;;1.75;;
26582;SDS011;14230;45.382;10.998;2022-09-09T13:31:21;2.92;;;1.50;;
26582;SDS011;14230;45.382;10.998;2022-09-09T13:36:16;2.55;;;1.10;;
26582;SDS011;14230;45.382;10.998;2022-09-09T13:38:59;6.18;;;2.55;;
26582;SDS011;14230;45.382;10.998;2022-09-09T13:41:43;6.70;;;1.80;;
26582;SDS011;14230;45.382;10.998;2022-09-09T13:44:47;3.67;;;1.60;;
26582;SDS011;14230;45.382;10.998;2022-09-09T13:49:36;2.90;;;1.85;;
26582;SDS011;14230;45.382;10.998;2022-09-09T13:52:05;7.13;;;1.67;;
26582;SDS011;14230;45.382;10.998;2022-09-09T13:54:38;5.28;;;1.75;;
26582;SDS011;14230;45.382;10.998;2022-09-09T13:57:17;8.60;;;2.03;;
26582;SDS011;14230;45.382;10.998;2022-09-09T13:59:45;5.07;;;1.73;;
26582;SDS011;14230;45.382;10.998;2022-09-09T14:02:30;4.82;;;1.75;;
26582;SDS011;14230;45.382;10.998;2022-09-09T14:04:58;3.20;;;1.83;;
26582;SDS011;14230;45.382;10.998;2022-09-09T14:07:25;3.72;;;1.48;;
26582;SDS011;14230;45.382;10.998;2022-09-09T14:09:53;3.33;;;1.83;;
26582;SDS011;14230;45.382;10.998;2022-09-09T14:12:21;2.78;;;1.63;;
26582;SDS011;14230;45.382;10.998;2022-09-09T14:14:48;6.03;;;1.30;;
26582;SDS011;14230;45.382;10.998;2022-09-09T14:17:16;2.70;;;1.35;;
26582;SDS011;14230;45.382;10.998;2022-09-09T14:19:44;2.25;;;1.10;;
26582;SDS011;14230;45.382;10.998;2022-09-09T14:22:12;2.20;;;1.02;;
26582;SDS011;14230;45.382;10.998;2022-09-09T14:24:40;5.65;;;1.50;;
26582;SDS011;14230;45.382;10.998;2022-09-09T14:27:07;4.15;;;1.20;;
26582;SDS011;14230;45.382;10.998;2022-09-09T14:29:35;2.30;;;1.48;;
26582;SDS011;14230;45.382;10.998;2022-09-09T14:32:02;2.53;;;1.20;;
26582;SDS011;14230;45.382;10.998;2022-09-09T14:34:33;2.97;;;1.80;;
26582;SDS011;14230;45.382;10.998;2022-09-09T14:37:01;3.97;;;1.27;;
26582;SDS011;14230;45.382;10.998;2022-09-09T14:39:28;2.15;;;1.50;;
26582;SDS011;14230;45.382;10.998;2022-09-09T14:41:56;7.95;;;1.98;;
26582;SDS011;14230;45.382;10.998;2022-09-09T14:44:23;1.13;;;1.02;;
26582;SDS011;14230;45.382;10.998;2022-09-09T14:46:51;3.17;;;1.30;;
26582;SDS011;14230;45.382;10.998;2022-09-09T14:49:18;2.72;;;1.33;;
26582;SDS011;14230;45.382;10.998;2022-09-09T14:51:45;4.32;;;1.80;;
26582;SDS011;14230;45.382;10.998;2022-09-09T14:54:13;4.88;;;1.52;;
26582;SDS011;14230;45.382;10.998;2022-09-09T14:56:41;2.45;;;1.33;;
26582;SDS011;14230;45.382;10.998;2022-09-09T14:59:08;3.85;;;1.33;;
26582;SDS011;14230;45.382;10.998;2022-09-09T15:01:36;3.90;;;1.50;;
26582;SDS011;14230;45.382;10.998;2022-09-09T15:04:05;1.20;;;1.05;;
26582;SDS011;14230;45.382;10.998;2022-09-09T15:06:33;2.70;;;1.10;;
26582;SDS011;14230;45.382;10.998;2022-09-09T15:11:36;4.10;;;1.60;;
26582;SDS011;14230;45.382;10.998;2022-09-09T15:14:05;1.58;;;1.20;;
26582;SDS011;14230;45.382;10.998;2022-09-09T15:16:33;3.67;;;1.20;;
26582;SDS011;14230;45.382;10.998;2022-09-09T15:19:02;2.00;;;1.17;;
26582;SDS011;14230;45.382;10.998;2022-09-09T15:21:31;5.45;;;2.25;;
26582;SDS011;14230;45.382;10.998;2022-09-09T15:24:00;2.35;;;1.27;;
26582;SDS011;14230;45.382;10.998;2022-09-09T15:26:28;2.55;;;1.30;;
26582;SDS011;14230;45.382;10.998;2022-09-09T15:28:56;3.10;;;1.60;;
26582;SDS011;14230;45.382;10.998;2022-09-09T15:31:29;4.78;;;1.85;;
26582;SDS011;14230;45.382;10.998;2022-09-09T15:33:59;4.15;;;1.63;;
26582;SDS011;14230;45.382;10.998;2022-09-09T15:36:32;2.92;;;1.60;;
26582;SDS011;14230;45.382;10.998;2022-09-09T15:39:02;1.73;;;1.27;;
26582;SDS011;14230;45.382;10.998;2022-09-09T15:41:31;5.03;;;1.83;;
26582;SDS011;14230;45.382;10.998;2022-09-09T15:43:59;2.95;;;1.73;;
26582;SDS011;14230;45.382;10.998;2022-09-09T15:46:30;1.75;;;1.50;;
26582;SDS011;14230;45.382;10.998;2022-09-09T15:49:07;2.63;;;1.30;;
26582;SDS011;14230;45.382;10.998;2022-09-09T15:51:40;3.75;;;1.65;;
26582;SDS011;14230;45.382;10.998;2022-09-09T15:54:12;2.63;;;1.45;;
26582;SDS011;14230;45.382;10.998;2022-09-09T15:56:41;4.65;;;1.50;;
26582;SDS011;14230;45.382;10.998;2022-09-09T15:59:08;5.30;;;1.70;;
26582;SDS011;14230;45.382;10.998;2022-09-09T16:01:36;3.95;;;2.00;;
26582;SDS011;14230;45.382;10.998;2022-09-09T16:04:06;3.13;;;1.90;;
26582;SDS011;14230;45.382;10.998;2022-09-09T16:06:33;4.80;;;1.70;;
26582;SDS011;14230;45.382;10.998;2022-09-09T16:09:02;3.53;;;1.58;;
26582;SDS011;14230;45.382;10.998;2022-09-09T16:11:31;8.40;;;1.38;;
26582;SDS011;14230;45.382;10.998;2022-09-09T16:14:02;3.45;;;1.50;;
26582;SDS011;14230;45.382;10.998;2022-09-09T16:16:31;2.72;;;1.67;;
26582;SDS011;14230;45.382;10.998;2022-09-09T16:19:00;6.13;;;1.63;;
26582;SDS011;14230;45.382;10.998;2022-09-09T16:21:32;6.70;;;1.75;;
26582;SDS011;14230;45.382;10.998;2022-09-09T16:24:02;4.80;;;1.52;;
26582;SDS011;14230;45.382;10.998;2022-09-09T16:26:32;3.45;;;1.50;;
26582;SDS011;14230;45.382;10.998;2022-09-09T16:29:01;5.80;;;2.13;;
26582;SDS011;14230;45.382;10.998;2022-09-09T16:31:29;4.53;;;1.88;;
26582;SDS011;14230;45.382;10.998;2022-09-09T16:33:59;2.33;;;1.70;;
26582;SDS011;14230;45.382;10.998;2022-09-09T16:36:27;6.43;;;1.80;;
26582;SDS011;14230;45.382;10.998;2022-09-09T16:39:04;3.40;;;1.60;;
26582;SDS011;14230;45.382;10.998;2022-09-09T16:41:34;4.18;;;1.50;;
26582;SDS011;14230;45.382;10.998;2022-09-09T16:44:03;3.42;;;1.33;;
26582;SDS011;14230;45.382;10.998;2022-09-09T16:46:37;2.53;;;1.58;;
26582;SDS011;14230;45.382;10.998;2022-09-09T16:49:08;12.38;;;3.35;;
26582;SDS011;14230;45.382;10.998;2022-09-09T16:51:41;3.03;;;2.00;;
26582;SDS011;14230;45.382;10.998;2022-09-09T16:54:14;3.03;;;1.65;;
26582;SDS011;14230;45.382;10.998;2022-09-09T16:56:44;3.25;;;1.58;;
26582;SDS011;14230;45.382;10.998;2022-09-09T16:59:17;2.45;;;1.40;;
26582;SDS011;14230;45.382;10.998;2022-09-09T17:01:47;2.00;;;1.50;;
26582;SDS011;14230;45.382;10.998;2022-09-09T17:04:18;2.53;;;1.25;;
26582;SDS011;14230;45.382;10.998;2022-09-09T17:06:48;2.85;;;1.42;;
26582;SDS011;14230;45.382;10.998;2022-09-09T17:09:17;4.45;;;1.55;;
26582;SDS011;14230;45.382;10.998;2022-09-09T17:11:46;2.92;;;1.60;;
26582;SDS011;14230;45.382;10.998;2022-09-09T17:14:16;10.65;;;3.20;;
26582;SDS011;14230;45.382;10.998;2022-09-09T17:16:45;5.40;;;1.90;;
26582;SDS011;14230;45.382;10.998;2022-09-09T17:19:13;4.65;;;1.80;;
26582;SDS011;14230;45.382;10.998;2022-09-09T17:21:41;2.85;;;1.63;;
26582;SDS011;14230;45.382;10.998;2022-09-09T17:24:29;3.83;;;1.50;;
26582;SDS011;14230;45.382;10.998;2022-09-09T17:26:57;3.53;;;1.92;;
26582;SDS011;14230;45.382;10.998;2022-09-09T17:29:25;4.20;;;1.70;;
26582;SDS011;14230;45.382;10.998;2022-09-09T17:31:52;5.30;;;1.75;;
26582;SDS011;14230;45.382;10.998;2022-09-09T17:34:21;3.63;;;1.60;;
26582;SDS011;14230;45.382;10.998;2022-09-09T17:36:49;2.30;;;1.60;;
26582;SDS011;14230;45.382;10.998;2022-09-09T17:39:17;6.30;;;2.25;;
26582;SDS011;14230;45.382;10.998;2022-09-09T17:41:45;4.38;;;1.63;;
26582;SDS011;14230;45.382;10.998;2022-09-09T17:44:12;3.38;;;1.50;;
26582;SDS011;14230;45.382;10.998;2022-09-09T17:46:40;3.40;;;1.60;;
26582;SDS011;14230;45.382;10.998;2022-09-09T17:49:10;4.25;;;1.75;;
26582;SDS011;14230;45.382;10.998;2022-09-09T17:51:40;3.47;;;1.67;;